sensor_id;sensor_type;location;lat;lon;timestamp;temperature;humidity
17215;DHT22;8723;51.502;6.918;2023-08-20T00:01:33;18.70;99.90
17215;DHT22;8723;51.502;6.918;2023-08-20T00:04:02;18.70;99.90
17215;DHT22;8723;51.502;6.918;2023-08-20T00:06:29;18.60;1.00
17215;DHT22;8723;51.502;6.918;2023-08-20T00:08:56;18.70;99.90
17215;DHT22;8723;51.502;6.918;2023-08-20T00:11:23;18.60;1.00
17215;DHT22;8723;51.502;6.918;2023-08-20T00:13:50;18.70;99.90
17215;DHT22;8723;51.502;6.918;2023-08-20T00:16:17;18.60;1.00
17215;DHT22;8723;51.502;6.918;2023-08-20T00:18:44;18.60;1.00
17215;DHT22;8723;51.502;6.918;2023-08-20T00:21:14;18.60;1.00
17215;DHT22;8723;51.502;6.918;2023-08-20T00:23:41;18.60;12.40
17215;DHT22;8723;51.502;6.918;2023-08-20T00:26:09;18.70;99.90
17215;DHT22;8723;51.502;6.918;2023-08-20T00:28:35;18.60;1.00
17215;DHT22;8723;51.502;6.918;2023-08-20T00:31:05;18.60;1.00
17215;DHT22;8723;51.502;6.918;2023-08-20T00:33:34;18.50;1.00
17215;DHT22;8723;51.502;6.918;2023-08-20T00:36:01;18.40;99.90
17215;DHT22;8723;51.502;6.918;2023-08-20T00:38:29;18.50;99.90
17215;DHT22;8723;51.502;6.918;2023-08-20T00:40:56;18.40;1.00
17215;DHT22;8723;51.502;6.918;2023-08-20T00:43:23;18.40;1.00
17215;DHT22;8723;51.502;6.918;2023-08-20T00:45:50;18.30;1.00
17215;DHT22;8723;51.502;6.918;2023-08-20T00:48:17;18.30;99.90
17215;DHT22;8723;51.502;6.918;2023-08-20T00:50:44;18.30;99.90
17215;DHT22;8723;51.502;6.918;2023-08-20T00:53:13;18.30;1.00
17215;DHT22;8723;51.502;6.918;2023-08-20T00:55:42;18.30;1.00
17215;DHT22;8723;51.502;6.918;2023-08-20T00:58:10;18.30;1.00
17215;DHT22;8723;51.502;6.918;2023-08-20T01:00:37;18.20;94.40
17215;DHT22;8723;51.502;6.918;2023-08-20T01:03:04;18.30;1.00
17215;DHT22;8723;51.502;6.918;2023-08-20T01:05:33;18.20;38.10
17215;DHT22;8723;51.502;6.918;2023-08-20T01:08:15;18.20;99.90
17215;DHT22;8723;51.502;6.918;2023-08-20T01:10:53;18.20;1.00
17215;DHT22;8723;51.502;6.918;2023-08-20T01:13:23;18.30;1.00
17215;DHT22;8723;51.502;6.918;2023-08-20T01:15:49;18.20;99.90
17215;DHT22;8723;51.502;6.918;2023-08-20T01:18:16;18.20;99.90
17215;DHT22;8723;51.502;6.918;2023-08-20T01:20:56;18.20;99.90
17215;DHT22;8723;51.502;6.918;2023-08-20T01:23:48;18.10;1.00
17215;DHT22;8723;51.502;6.918;2023-08-20T01:26:40;18.20;1.00
17215;DHT22;8723;51.502;6.918;2023-08-20T01:29:09;18.10;1.00
17215;DHT22;8723;51.502;6.918;2023-08-20T01:31:37;18.10;99.90
17215;DHT22;8723;51.502;6.918;2023-08-20T01:34:04;18.10;99.90
17215;DHT22;8723;51.502;6.918;2023-08-20T01:36:31;18.10;99.90
17215;DHT22;8723;51.502;6.918;2023-08-20T01:38:58;18.10;99.90
17215;DHT22;8723;51.502;6.918;2023-08-20T01:41:26;18.10;99.90
17215;DHT22;8723;51.502;6.918;2023-08-20T01:43:55;18.10;99.90
17215;DHT22;8723;51.502;6.918;2023-08-20T01:46:27;18.10;99.90
17215;DHT22;8723;51.502;6.918;2023-08-20T01:48:55;18.10;99.90
17215;DHT22;8723;51.502;6.918;2023-08-20T01:51:24;18.10;99.90
17215;DHT22;8723;51.502;6.918;2023-08-20T01:53:54;18.10;99.90
17215;DHT22;8723;51.502;6.918;2023-08-20T01:56:23;18.10;99.90
17215;DHT22;8723;51.502;6.918;2023-08-20T01:58:52;18.10;99.90
17215;DHT22;8723;51.502;6.918;2023-08-20T02:01:22;18.00;99.90
17215;DHT22;8723;51.502;6.918;2023-08-20T02:03:54;18.00;99.90
17215;DHT22;8723;51.502;6.918;2023-08-20T02:06:24;18.00;99.90
17215;DHT22;8723;51.502;6.918;2023-08-20T02:08:52;18.00;99.90
17215;DHT22;8723;51.502;6.918;2023-08-20T02:11:19;18.00;99.90
17215;DHT22;8723;51.502;6.918;2023-08-20T02:13:46;18.00;99.90
17215;DHT22;8723;51.502;6.918;2023-08-20T02:16:14;18.00;99.90
17215;DHT22;8723;51.502;6.918;2023-08-20T02:18:44;18.00;99.90
17215;DHT22;8723;51.502;6.918;2023-08-20T02:21:16;18.00;99.90
17215;DHT22;8723;51.502;6.918;2023-08-20T02:23:46;18.10;99.90
17215;DHT22;8723;51.502;6.918;2023-08-20T02:26:14;18.00;99.90
17215;DHT22;8723;51.502;6.918;2023-08-20T02:28:41;18.00;99.90
17215;DHT22;8723;51.502;6.918;2023-08-20T02:31:09;18.10;99.90
17215;DHT22;8723;51.502;6.918;2023-08-20T02:33:39;18.10;99.90
17215;DHT22;8723;51.502;6.918;2023-08-20T02:36:09;18.10;99.90
17215;DHT22;8723;51.502;6.918;2023-08-20T02:38:39;18.20;99.90
17215;DHT22;8723;51.502;6.918;2023-08-20T02:41:05;18.30;99.90
17215;DHT22;8723;51.502;6.918;2023-08-20T02:43:32;18.30;99.90
17215;DHT22;8723;51.502;6.918;2023-08-20T02:45:59;18.40;99.90
17215;DHT22;8723;51.502;6.918;2023-08-20T02:48:26;18.40;99.90
17215;DHT22;8723;51.502;6.918;2023-08-20T02:50:54;18.50;99.90
17215;DHT22;8723;51.502;6.918;2023-08-20T02:53:21;18.50;99.90
17215;DHT22;8723;51.502;6.918;2023-08-20T02:55:49;18.60;99.90
17215;DHT22;8723;51.502;6.918;2023-08-20T02:58:16;18.50;99.90
17215;DHT22;8723;51.502;6.918;2023-08-20T03:00:43;18.50;99.90
17215;DHT22;8723;51.502;6.918;2023-08-20T03:03:12;18.50;99.90
17215;DHT22;8723;51.502;6.918;2023-08-20T03:05:42;18.50;99.90
17215;DHT22;8723;51.502;6.918;2023-08-20T03:08:12;18.50;99.90
17215;DHT22;8723;51.502;6.918;2023-08-20T03:10:41;18.50;99.90
17215;DHT22;8723;51.502;6.918;2023-08-20T03:13:11;18.50;99.90
17215;DHT22;8723;51.502;6.918;2023-08-20T03:15:38;18.50;99.90
17215;DHT22;8723;51.502;6.918;2023-08-20T03:18:06;18.50;99.90
17215;DHT22;8723;51.502;6.918;2023-08-20T03:20:32;18.50;99.90
17215;DHT22;8723;51.502;6.918;2023-08-20T03:23:00;18.40;99.90
17215;DHT22;8723;51.502;6.918;2023-08-20T03:25:27;18.50;99.90
17215;DHT22;8723;51.502;6.918;2023-08-20T03:27:54;18.50;99.90
17215;DHT22;8723;51.502;6.918;2023-08-20T03:30:23;18.40;99.90
17215;DHT22;8723;51.502;6.918;2023-08-20T03:32:49;18.40;99.90
17215;DHT22;8723;51.502;6.918;2023-08-20T03:35:16;18.50;99.90
17215;DHT22;8723;51.502;6.918;2023-08-20T03:37:43;18.50;99.90
17215;DHT22;8723;51.502;6.918;2023-08-20T03:40:10;18.60;99.90
17215;DHT22;8723;51.502;6.918;2023-08-20T03:42:37;18.50;99.90
17215;DHT22;8723;51.502;6.918;2023-08-20T03:45:05;18.50;99.90
17215;DHT22;8723;51.502;6.918;2023-08-20T03:47:33;18.50;99.90
17215;DHT22;8723;51.502;6.918;2023-08-20T03:50:00;18.50;99.90
17215;DHT22;8723;51.502;6.918;2023-08-20T03:52:27;18.40;99.90
17215;DHT22;8723;51.502;6.918;2023-08-20T03:54:53;18.40;99.90
17215;DHT22;8723;51.502;6.918;2023-08-20T03:57:20;18.40;99.90
17215;DHT22;8723;51.502;6.918;2023-08-20T03:59:47;18.40;99.90
17215;DHT22;8723;51.502;6.918;2023-08-20T04:02:14;18.30;99.90
17215;DHT22;8723;51.502;6.918;2023-08-20T04:04:42;18.30;99.90
17215;DHT22;8723;51.502;6.918;2023-08-20T04:07:09;18.30;99.90
17215;DHT22;8723;51.502;6.918;2023-08-20T04:09:36;18.40;99.90
17215;DHT22;8723;51.502;6.918;2023-08-20T04:12:04;18.30;99.90
17215;DHT22;8723;51.502;6.918;2023-08-20T04:14:31;18.30;99.90
17215;DHT22;8723;51.502;6.918;2023-08-20T04:16:58;18.30;99.90
17215;DHT22;8723;51.502;6.918;2023-08-20T04:19:25;18.30;99.90
17215;DHT22;8723;51.502;6.918;2023-08-20T04:21:53;18.30;99.90
17215;DHT22;8723;51.502;6.918;2023-08-20T04:24:20;18.20;99.90
17215;DHT22;8723;51.502;6.918;2023-08-20T04:26:46;18.20;99.90
17215;DHT22;8723;51.502;6.918;2023-08-20T04:29:13;18.10;99.90
17215;DHT22;8723;51.502;6.918;2023-08-20T04:31:40;18.10;99.90
17215;DHT22;8723;51.502;6.918;2023-08-20T04:34:07;18.10;99.90
17215;DHT22;8723;51.502;6.918;2023-08-20T04:36:34;18.10;99.90
17215;DHT22;8723;51.502;6.918;2023-08-20T04:39:02;18.10;99.90
17215;DHT22;8723;51.502;6.918;2023-08-20T04:41:30;18.00;99.90
17215;DHT22;8723;51.502;6.918;2023-08-20T04:43:56;18.10;99.90
17215;DHT22;8723;51.502;6.918;2023-08-20T04:46:23;18.00;99.90
17215;DHT22;8723;51.502;6.918;2023-08-20T04:48:50;18.00;99.90
17215;DHT22;8723;51.502;6.918;2023-08-20T04:51:17;18.00;99.90
17215;DHT22;8723;51.502;6.918;2023-08-20T04:53:44;18.00;99.90
17215;DHT22;8723;51.502;6.918;2023-08-20T04:56:14;18.00;99.90
17215;DHT22;8723;51.502;6.918;2023-08-20T04:58:40;18.00;99.90
17215;DHT22;8723;51.502;6.918;2023-08-20T05:01:07;18.00;99.90
17215;DHT22;8723;51.502;6.918;2023-08-20T05:03:34;18.00;99.90
17215;DHT22;8723;51.502;6.918;2023-08-20T05:06:01;18.00;99.90
17215;DHT22;8723;51.502;6.918;2023-08-20T05:08:28;18.00;99.90
17215;DHT22;8723;51.502;6.918;2023-08-20T05:10:55;17.90;99.90
17215;DHT22;8723;51.502;6.918;2023-08-20T05:13:23;17.90;99.90
17215;DHT22;8723;51.502;6.918;2023-08-20T05:15:50;17.90;99.90
17215;DHT22;8723;51.502;6.918;2023-08-20T05:18:17;17.90;99.90
17215;DHT22;8723;51.502;6.918;2023-08-20T05:20:44;17.90;99.90
17215;DHT22;8723;51.502;6.918;2023-08-20T05:23:10;17.80;99.90
17215;DHT22;8723;51.502;6.918;2023-08-20T05:25:37;17.90;99.90
17215;DHT22;8723;51.502;6.918;2023-08-20T05:28:04;18.00;99.90
17215;DHT22;8723;51.502;6.918;2023-08-20T05:30:33;18.00;99.90
17215;DHT22;8723;51.502;6.918;2023-08-20T05:33:00;18.00;99.90
17215;DHT22;8723;51.502;6.918;2023-08-20T05:35:26;18.00;99.90
17215;DHT22;8723;51.502;6.918;2023-08-20T05:37:53;18.10;99.90
17215;DHT22;8723;51.502;6.918;2023-08-20T05:40:20;18.10;99.90
17215;DHT22;8723;51.502;6.918;2023-08-20T05:42:47;18.10;99.90
17215;DHT22;8723;51.502;6.918;2023-08-20T05:45:14;18.20;99.90
17215;DHT22;8723;51.502;6.918;2023-08-20T05:47:42;18.20;99.90
17215;DHT22;8723;51.502;6.918;2023-08-20T05:50:09;18.30;99.90
17215;DHT22;8723;51.502;6.918;2023-08-20T05:52:36;18.30;99.90
17215;DHT22;8723;51.502;6.918;2023-08-20T05:55:03;18.40;99.90
17215;DHT22;8723;51.502;6.918;2023-08-20T05:57:30;18.40;99.90
17215;DHT22;8723;51.502;6.918;2023-08-20T05:59:57;18.40;99.90
17215;DHT22;8723;51.502;6.918;2023-08-20T06:02:23;18.50;99.90
17215;DHT22;8723;51.502;6.918;2023-08-20T06:04:52;18.60;99.90
17215;DHT22;8723;51.502;6.918;2023-08-20T06:07:18;18.60;99.90
17215;DHT22;8723;51.502;6.918;2023-08-20T06:09:45;18.70;99.90
17215;DHT22;8723;51.502;6.918;2023-08-20T06:12:12;18.80;99.90
17215;DHT22;8723;51.502;6.918;2023-08-20T06:14:39;18.80;99.90
17215;DHT22;8723;51.502;6.918;2023-08-20T06:17:06;18.80;99.90
17215;DHT22;8723;51.502;6.918;2023-08-20T06:19:33;19.00;99.90
17215;DHT22;8723;51.502;6.918;2023-08-20T06:22:01;19.00;99.90
17215;DHT22;8723;51.502;6.918;2023-08-20T06:24:28;19.00;99.90
17215;DHT22;8723;51.502;6.918;2023-08-20T06:26:55;19.00;99.90
17215;DHT22;8723;51.502;6.918;2023-08-20T06:29:22;19.10;99.90
17215;DHT22;8723;51.502;6.918;2023-08-20T06:31:49;19.20;99.90
17215;DHT22;8723;51.502;6.918;2023-08-20T06:34:16;19.20;99.90
17215;DHT22;8723;51.502;6.918;2023-08-20T06:36:43;19.30;99.90
17215;DHT22;8723;51.502;6.918;2023-08-20T06:39:11;19.30;99.90
17215;DHT22;8723;51.502;6.918;2023-08-20T06:41:41;19.30;99.90
17215;DHT22;8723;51.502;6.918;2023-08-20T06:44:07;19.30;99.90
17215;DHT22;8723;51.502;6.918;2023-08-20T06:46:34;19.40;99.90
17215;DHT22;8723;51.502;6.918;2023-08-20T06:49:01;19.50;99.90
17215;DHT22;8723;51.502;6.918;2023-08-20T06:51:28;19.50;99.90
17215;DHT22;8723;51.502;6.918;2023-08-20T06:53:55;19.50;99.90
17215;DHT22;8723;51.502;6.918;2023-08-20T06:56:24;19.60;99.90
17215;DHT22;8723;51.502;6.918;2023-08-20T06:58:51;19.60;99.90
17215;DHT22;8723;51.502;6.918;2023-08-20T07:01:19;19.70;99.90
17215;DHT22;8723;51.502;6.918;2023-08-20T07:03:46;19.70;99.90
17215;DHT22;8723;51.502;6.918;2023-08-20T07:06:13;19.90;99.90
17215;DHT22;8723;51.502;6.918;2023-08-20T07:08:41;19.90;99.90
17215;DHT22;8723;51.502;6.918;2023-08-20T07:11:08;20.00;99.90
17215;DHT22;8723;51.502;6.918;2023-08-20T07:13:36;20.00;99.90
17215;DHT22;8723;51.502;6.918;2023-08-20T07:16:03;20.00;99.90
17215;DHT22;8723;51.502;6.918;2023-08-20T07:18:30;20.00;99.90
17215;DHT22;8723;51.502;6.918;2023-08-20T07:20:57;20.00;99.90
17215;DHT22;8723;51.502;6.918;2023-08-20T07:23:24;20.20;99.90
17215;DHT22;8723;51.502;6.918;2023-08-20T07:25:51;20.20;99.90
17215;DHT22;8723;51.502;6.918;2023-08-20T07:28:18;20.20;99.90
17215;DHT22;8723;51.502;6.918;2023-08-20T07:30:53;20.20;99.90
17215;DHT22;8723;51.502;6.918;2023-08-20T07:33:20;20.30;99.90
17215;DHT22;8723;51.502;6.918;2023-08-20T07:35:47;20.40;99.90
17215;DHT22;8723;51.502;6.918;2023-08-20T07:38:14;20.40;99.90
17215;DHT22;8723;51.502;6.918;2023-08-20T07:40:40;20.40;99.90
17215;DHT22;8723;51.502;6.918;2023-08-20T07:43:07;20.40;99.90
17215;DHT22;8723;51.502;6.918;2023-08-20T07:45:34;20.50;99.90
17215;DHT22;8723;51.502;6.918;2023-08-20T07:48:02;20.50;99.90
17215;DHT22;8723;51.502;6.918;2023-08-20T07:50:29;20.60;99.90
17215;DHT22;8723;51.502;6.918;2023-08-20T07:52:56;20.70;99.90
17215;DHT22;8723;51.502;6.918;2023-08-20T07:55:23;20.70;99.90
17215;DHT22;8723;51.502;6.918;2023-08-20T07:57:50;20.80;99.90
17215;DHT22;8723;51.502;6.918;2023-08-20T08:00:18;20.80;99.90
17215;DHT22;8723;51.502;6.918;2023-08-20T08:02:45;20.80;99.90
17215;DHT22;8723;51.502;6.918;2023-08-20T08:05:13;20.90;99.90
17215;DHT22;8723;51.502;6.918;2023-08-20T08:07:40;21.00;99.90
17215;DHT22;8723;51.502;6.918;2023-08-20T08:10:07;21.10;99.90
17215;DHT22;8723;51.502;6.918;2023-08-20T08:12:34;21.20;99.90
17215;DHT22;8723;51.502;6.918;2023-08-20T08:15:01;21.40;99.90
17215;DHT22;8723;51.502;6.918;2023-08-20T08:17:28;21.70;99.90
17215;DHT22;8723;51.502;6.918;2023-08-20T08:19:55;21.70;99.90
17215;DHT22;8723;51.502;6.918;2023-08-20T08:22:24;21.90;99.90
17215;DHT22;8723;51.502;6.918;2023-08-20T08:24:51;22.10;99.90
17215;DHT22;8723;51.502;6.918;2023-08-20T08:27:18;22.20;99.90
17215;DHT22;8723;51.502;6.918;2023-08-20T08:29:44;22.30;99.90
17215;DHT22;8723;51.502;6.918;2023-08-20T08:32:11;22.50;99.90
17215;DHT22;8723;51.502;6.918;2023-08-20T08:34:38;22.60;99.90
17215;DHT22;8723;51.502;6.918;2023-08-20T08:37:05;22.70;99.90
17215;DHT22;8723;51.502;6.918;2023-08-20T08:39:33;22.90;99.90
17215;DHT22;8723;51.502;6.918;2023-08-20T08:42:01;23.00;99.90
17215;DHT22;8723;51.502;6.918;2023-08-20T08:44:30;23.10;99.90
17215;DHT22;8723;51.502;6.918;2023-08-20T08:46:57;23.30;99.90
17215;DHT22;8723;51.502;6.918;2023-08-20T08:49:25;23.50;99.90
17215;DHT22;8723;51.502;6.918;2023-08-20T08:51:54;23.60;99.90
17215;DHT22;8723;51.502;6.918;2023-08-20T08:54:23;23.90;1.00
17215;DHT22;8723;51.502;6.918;2023-08-20T08:56:51;24.10;99.90
17215;DHT22;8723;51.502;6.918;2023-08-20T08:59:18;24.20;63.60
17215;DHT22;8723;51.502;6.918;2023-08-20T09:01:45;24.20;44.30
17215;DHT22;8723;51.502;6.918;2023-08-20T09:04:12;24.30;30.90
17215;DHT22;8723;51.502;6.918;2023-08-20T09:06:46;24.40;19.30
17215;DHT22;8723;51.502;6.918;2023-08-20T09:09:13;24.50;14.90
17215;DHT22;8723;51.502;6.918;2023-08-20T09:11:40;24.50;11.60
17215;DHT22;8723;51.502;6.918;2023-08-20T09:14:08;24.50;3.90
17215;DHT22;8723;51.502;6.918;2023-08-20T09:16:46;24.50;1.00
17215;DHT22;8723;51.502;6.918;2023-08-20T09:19:13;24.40;1.00
17215;DHT22;8723;51.502;6.918;2023-08-20T09:21:45;24.50;1.00
17215;DHT22;8723;51.502;6.918;2023-08-20T09:24:14;24.60;1.00
17215;DHT22;8723;51.502;6.918;2023-08-20T09:26:45;24.80;1.00
17215;DHT22;8723;51.502;6.918;2023-08-20T09:29:13;24.90;1.00
17215;DHT22;8723;51.502;6.918;2023-08-20T09:31:40;25.20;1.00
17215;DHT22;8723;51.502;6.918;2023-08-20T09:34:12;25.30;1.00
17215;DHT22;8723;51.502;6.918;2023-08-20T09:36:39;25.50;1.00
17215;DHT22;8723;51.502;6.918;2023-08-20T09:39:06;25.70;1.00
17215;DHT22;8723;51.502;6.918;2023-08-20T09:41:33;25.70;1.00
17215;DHT22;8723;51.502;6.918;2023-08-20T09:44:02;25.60;1.00
17215;DHT22;8723;51.502;6.918;2023-08-20T09:46:34;25.60;1.00
17215;DHT22;8723;51.502;6.918;2023-08-20T09:49:02;25.50;1.00
17215;DHT22;8723;51.502;6.918;2023-08-20T09:51:33;25.40;1.00
17215;DHT22;8723;51.502;6.918;2023-08-20T09:54:09;25.50;1.00
17215;DHT22;8723;51.502;6.918;2023-08-20T09:56:39;25.50;1.00
17215;DHT22;8723;51.502;6.918;2023-08-20T09:59:06;25.60;1.00
17215;DHT22;8723;51.502;6.918;2023-08-20T10:01:36;25.70;1.00
17215;DHT22;8723;51.502;6.918;2023-08-20T10:04:03;25.80;1.00
17215;DHT22;8723;51.502;6.918;2023-08-20T10:06:33;25.90;1.00
17215;DHT22;8723;51.502;6.918;2023-08-20T10:09:01;26.00;1.00
17215;DHT22;8723;51.502;6.918;2023-08-20T10:11:28;26.00;1.00
17215;DHT22;8723;51.502;6.918;2023-08-20T10:13:55;26.10;1.00
17215;DHT22;8723;51.502;6.918;2023-08-20T10:16:22;26.10;1.00
17215;DHT22;8723;51.502;6.918;2023-08-20T10:18:51;26.10;1.00
17215;DHT22;8723;51.502;6.918;2023-08-20T10:21:23;26.10;1.00
17215;DHT22;8723;51.502;6.918;2023-08-20T10:23:51;26.10;1.00
17215;DHT22;8723;51.502;6.918;2023-08-20T10:26:20;26.10;1.00
17215;DHT22;8723;51.502;6.918;2023-08-20T10:28:49;26.10;1.00
17215;DHT22;8723;51.502;6.918;2023-08-20T10:31:17;26.10;1.00
17215;DHT22;8723;51.502;6.918;2023-08-20T10:33:54;26.10;1.00
17215;DHT22;8723;51.502;6.918;2023-08-20T10:36:22;26.30;1.00
17215;DHT22;8723;51.502;6.918;2023-08-20T10:38:53;26.30;1.00
17215;DHT22;8723;51.502;6.918;2023-08-20T10:41:24;26.30;1.00
17215;DHT22;8723;51.502;6.918;2023-08-20T10:43:51;26.30;1.00
17215;DHT22;8723;51.502;6.918;2023-08-20T10:46:19;26.30;1.00
17215;DHT22;8723;51.502;6.918;2023-08-20T10:48:48;26.20;1.00
17215;DHT22;8723;51.502;6.918;2023-08-20T10:51:18;26.20;1.00
17215;DHT22;8723;51.502;6.918;2023-08-20T10:54:01;26.40;1.00
17215;DHT22;8723;51.502;6.918;2023-08-20T10:56:38;26.60;1.00
17215;DHT22;8723;51.502;6.918;2023-08-20T10:59:06;26.70;1.00
17215;DHT22;8723;51.502;6.918;2023-08-20T11:01:34;26.70;1.00
17215;DHT22;8723;51.502;6.918;2023-08-20T11:04:01;26.60;1.00
17215;DHT22;8723;51.502;6.918;2023-08-20T11:06:34;26.60;1.00
17215;DHT22;8723;51.502;6.918;2023-08-20T11:09:01;26.50;1.00
17215;DHT22;8723;51.502;6.918;2023-08-20T11:11:31;26.50;1.00
17215;DHT22;8723;51.502;6.918;2023-08-20T11:14:04;26.40;1.00
17215;DHT22;8723;51.502;6.918;2023-08-20T11:16:32;26.40;1.00
17215;DHT22;8723;51.502;6.918;2023-08-20T11:18:59;26.60;1.00
17215;DHT22;8723;51.502;6.918;2023-08-20T11:21:27;26.90;1.00
17215;DHT22;8723;51.502;6.918;2023-08-20T11:23:55;27.00;1.00
17215;DHT22;8723;51.502;6.918;2023-08-20T11:26:22;26.90;1.00
17215;DHT22;8723;51.502;6.918;2023-08-20T11:28:49;27.10;1.00
17215;DHT22;8723;51.502;6.918;2023-08-20T11:31:16;27.30;1.00
17215;DHT22;8723;51.502;6.918;2023-08-20T11:33:43;27.40;1.00
17215;DHT22;8723;51.502;6.918;2023-08-20T11:36:09;27.30;1.00
17215;DHT22;8723;51.502;6.918;2023-08-20T11:38:37;27.30;1.00
17215;DHT22;8723;51.502;6.918;2023-08-20T11:41:05;27.20;1.00
17215;DHT22;8723;51.502;6.918;2023-08-20T11:43:32;27.30;1.00
17215;DHT22;8723;51.502;6.918;2023-08-20T11:45:59;27.50;1.00
17215;DHT22;8723;51.502;6.918;2023-08-20T11:48:26;27.80;1.00
17215;DHT22;8723;51.502;6.918;2023-08-20T11:50:55;28.00;1.00
17215;DHT22;8723;51.502;6.918;2023-08-20T11:53:23;28.10;1.00
17215;DHT22;8723;51.502;6.918;2023-08-20T11:55:50;28.10;1.00
17215;DHT22;8723;51.502;6.918;2023-08-20T11:58:18;27.90;1.00
17215;DHT22;8723;51.502;6.918;2023-08-20T12:00:49;27.90;1.00
17215;DHT22;8723;51.502;6.918;2023-08-20T12:03:18;28.00;1.00
17215;DHT22;8723;51.502;6.918;2023-08-20T12:05:45;28.00;1.00
17215;DHT22;8723;51.502;6.918;2023-08-20T12:08:15;28.00;1.00
17215;DHT22;8723;51.502;6.918;2023-08-20T12:10:43;27.90;1.00
17215;DHT22;8723;51.502;6.918;2023-08-20T12:13:10;27.90;1.00
17215;DHT22;8723;51.502;6.918;2023-08-20T12:15:38;27.80;1.00
17215;DHT22;8723;51.502;6.918;2023-08-20T12:18:05;27.90;1.00
17215;DHT22;8723;51.502;6.918;2023-08-20T12:20:35;28.10;1.00
17215;DHT22;8723;51.502;6.918;2023-08-20T12:23:03;28.30;1.00
17215;DHT22;8723;51.502;6.918;2023-08-20T12:25:31;28.30;1.00
17215;DHT22;8723;51.502;6.918;2023-08-20T12:27:59;28.30;1.00
17215;DHT22;8723;51.502;6.918;2023-08-20T12:30:26;28.30;1.00
17215;DHT22;8723;51.502;6.918;2023-08-20T12:32:54;28.20;1.00
17215;DHT22;8723;51.502;6.918;2023-08-20T12:35:21;28.20;1.00
17215;DHT22;8723;51.502;6.918;2023-08-20T12:37:48;28.30;1.00
17215;DHT22;8723;51.502;6.918;2023-08-20T12:40:14;28.20;1.00
17215;DHT22;8723;51.502;6.918;2023-08-20T12:42:41;28.10;1.00
17215;DHT22;8723;51.502;6.918;2023-08-20T12:45:09;28.30;1.00
17215;DHT22;8723;51.502;6.918;2023-08-20T12:47:36;28.30;1.00
17215;DHT22;8723;51.502;6.918;2023-08-20T12:50:05;28.30;1.00
17215;DHT22;8723;51.502;6.918;2023-08-20T12:52:33;28.10;1.00
17215;DHT22;8723;51.502;6.918;2023-08-20T12:54:59;28.00;1.00
17215;DHT22;8723;51.502;6.918;2023-08-20T12:57:26;27.90;1.00
17215;DHT22;8723;51.502;6.918;2023-08-20T12:59:53;27.90;1.00
17215;DHT22;8723;51.502;6.918;2023-08-20T13:02:20;28.10;1.00
17215;DHT22;8723;51.502;6.918;2023-08-20T13:04:47;28.10;1.00
17215;DHT22;8723;51.502;6.918;2023-08-20T13:07:17;28.00;1.00
17215;DHT22;8723;51.502;6.918;2023-08-20T13:09:44;28.00;1.00
17215;DHT22;8723;51.502;6.918;2023-08-20T13:12:12;28.10;1.00
17215;DHT22;8723;51.502;6.918;2023-08-20T13:14:40;28.10;1.00
17215;DHT22;8723;51.502;6.918;2023-08-20T13:17:08;28.20;1.00
17215;DHT22;8723;51.502;6.918;2023-08-20T13:19:35;28.20;1.00
17215;DHT22;8723;51.502;6.918;2023-08-20T13:22:02;28.10;1.00
17215;DHT22;8723;51.502;6.918;2023-08-20T13:24:30;28.10;1.00
17215;DHT22;8723;51.502;6.918;2023-08-20T13:26:57;28.00;1.00
17215;DHT22;8723;51.502;6.918;2023-08-20T13:29:24;28.10;1.00
17215;DHT22;8723;51.502;6.918;2023-08-20T13:31:51;28.20;1.00
17215;DHT22;8723;51.502;6.918;2023-08-20T13:34:17;28.20;1.00
17215;DHT22;8723;51.502;6.918;2023-08-20T13:36:44;28.20;1.00
17215;DHT22;8723;51.502;6.918;2023-08-20T13:39:12;28.20;1.00
17215;DHT22;8723;51.502;6.918;2023-08-20T13:41:41;28.10;1.00
17215;DHT22;8723;51.502;6.918;2023-08-20T13:44:08;28.20;1.00
17215;DHT22;8723;51.502;6.918;2023-08-20T13:46:35;28.20;1.00
17215;DHT22;8723;51.502;6.918;2023-08-20T13:49:02;28.30;1.00
17215;DHT22;8723;51.502;6.918;2023-08-20T13:51:29;28.30;1.00
17215;DHT22;8723;51.502;6.918;2023-08-20T13:53:56;28.30;1.00
17215;DHT22;8723;51.502;6.918;2023-08-20T13:56:23;28.30;1.00
17215;DHT22;8723;51.502;6.918;2023-08-20T13:58:52;28.30;1.00
17215;DHT22;8723;51.502;6.918;2023-08-20T14:01:19;28.30;1.00
17215;DHT22;8723;51.502;6.918;2023-08-20T14:03:46;28.10;1.00
17215;DHT22;8723;51.502;6.918;2023-08-20T14:06:12;28.10;1.00
17215;DHT22;8723;51.502;6.918;2023-08-20T14:08:39;28.10;1.00
17215;DHT22;8723;51.502;6.918;2023-08-20T14:11:06;28.00;1.00
17215;DHT22;8723;51.502;6.918;2023-08-20T14:13:33;28.00;1.00
17215;DHT22;8723;51.502;6.918;2023-08-20T14:16:02;28.00;1.00
17215;DHT22;8723;51.502;6.918;2023-08-20T14:18:29;28.10;1.00
17215;DHT22;8723;51.502;6.918;2023-08-20T14:20:55;28.00;1.00
17215;DHT22;8723;51.502;6.918;2023-08-20T14:23:23;27.90;1.00
17215;DHT22;8723;51.502;6.918;2023-08-20T14:25:50;27.80;1.00
17215;DHT22;8723;51.502;6.918;2023-08-20T14:28:19;27.80;1.00
17215;DHT22;8723;51.502;6.918;2023-08-20T14:30:45;27.90;1.00
17215;DHT22;8723;51.502;6.918;2023-08-20T14:33:14;27.90;1.00
17215;DHT22;8723;51.502;6.918;2023-08-20T14:35:40;27.70;1.00
17215;DHT22;8723;51.502;6.918;2023-08-20T14:38:07;27.60;1.00
17215;DHT22;8723;51.502;6.918;2023-08-20T14:40:36;27.40;1.00
17215;DHT22;8723;51.502;6.918;2023-08-20T14:43:05;27.40;1.00
17215;DHT22;8723;51.502;6.918;2023-08-20T14:45:32;27.40;1.00
17215;DHT22;8723;51.502;6.918;2023-08-20T14:47:59;27.40;1.00
17215;DHT22;8723;51.502;6.918;2023-08-20T14:50:27;27.30;1.00
17215;DHT22;8723;51.502;6.918;2023-08-20T14:52:54;27.30;1.00
17215;DHT22;8723;51.502;6.918;2023-08-20T14:55:21;27.40;1.00
17215;DHT22;8723;51.502;6.918;2023-08-20T14:57:48;27.40;1.00
17215;DHT22;8723;51.502;6.918;2023-08-20T15:00:14;27.30;1.00
17215;DHT22;8723;51.502;6.918;2023-08-20T15:02:43;27.30;1.00
17215;DHT22;8723;51.502;6.918;2023-08-20T15:05:10;27.30;1.00
17215;DHT22;8723;51.502;6.918;2023-08-20T15:07:39;27.30;1.00
17215;DHT22;8723;51.502;6.918;2023-08-20T15:10:06;27.30;1.00
17215;DHT22;8723;51.502;6.918;2023-08-20T15:12:33;27.30;1.00
17215;DHT22;8723;51.502;6.918;2023-08-20T15:15:00;27.30;1.00
17215;DHT22;8723;51.502;6.918;2023-08-20T15:17:28;27.30;1.00
17215;DHT22;8723;51.502;6.918;2023-08-20T15:19:55;27.20;1.00
17215;DHT22;8723;51.502;6.918;2023-08-20T15:22:22;27.10;1.00
17215;DHT22;8723;51.502;6.918;2023-08-20T15:24:50;27.10;1.00
17215;DHT22;8723;51.502;6.918;2023-08-20T15:27:17;27.10;1.00
17215;DHT22;8723;51.502;6.918;2023-08-20T15:29:44;27.10;1.00
17215;DHT22;8723;51.502;6.918;2023-08-20T15:32:11;27.10;1.00
17215;DHT22;8723;51.502;6.918;2023-08-20T15:34:38;27.10;1.00
17215;DHT22;8723;51.502;6.918;2023-08-20T15:37:05;27.10;1.00
17215;DHT22;8723;51.502;6.918;2023-08-20T15:39:32;27.10;1.00
17215;DHT22;8723;51.502;6.918;2023-08-20T15:42:00;27.10;1.00
17215;DHT22;8723;51.502;6.918;2023-08-20T15:44:27;27.00;1.00
17215;DHT22;8723;51.502;6.918;2023-08-20T15:46:54;27.00;1.00
17215;DHT22;8723;51.502;6.918;2023-08-20T15:49:21;26.90;1.00
17215;DHT22;8723;51.502;6.918;2023-08-20T15:51:48;26.90;1.00
17215;DHT22;8723;51.502;6.918;2023-08-20T15:54:15;26.80;1.00
17215;DHT22;8723;51.502;6.918;2023-08-20T15:56:42;26.80;1.00